sensor_id;sensor_type;location;lat;lon;timestamp;temperature;humidity
9987;DHT22;5033;46.310;11.214;2022-10-16T00:01:58;16.40;99.90
9987;DHT22;5033;46.310;11.214;2022-10-16T00:04:26;16.40;99.90
9987;DHT22;5033;46.310;11.214;2022-10-16T00:06:55;16.40;99.90
9987;DHT22;5033;46.310;11.214;2022-10-16T00:09:22;16.40;99.90
9987;DHT22;5033;46.310;11.214;2022-10-16T00:11:51;16.40;99.90
9987;DHT22;5033;46.310;11.214;2022-10-16T00:14:18;16.40;99.90
9987;DHT22;5033;46.310;11.214;2022-10-16T00:16:45;16.40;99.90
9987;DHT22;5033;46.310;11.214;2022-10-16T00:19:13;16.30;99.90
9987;DHT22;5033;46.310;11.214;2022-10-16T00:21:41;16.30;99.90
9987;DHT22;5033;46.310;11.214;2022-10-16T00:24:10;16.30;99.90
9987;DHT22;5033;46.310;11.214;2022-10-16T00:26:39;16.20;99.90
9987;DHT22;5033;46.310;11.214;2022-10-16T00:29:07;16.20;99.90
9987;DHT22;5033;46.310;11.214;2022-10-16T00:31:35;16.10;99.90
9987;DHT22;5033;46.310;11.214;2022-10-16T00:34:02;16.10;99.90
9987;DHT22;5033;46.310;11.214;2022-10-16T00:36:30;16.10;99.90
9987;DHT22;5033;46.310;11.214;2022-10-16T00:38:58;16.10;99.90
9987;DHT22;5033;46.310;11.214;2022-10-16T00:41:28;16.10;99.90
9987;DHT22;5033;46.310;11.214;2022-10-16T00:43:57;16.10;99.90
9987;DHT22;5033;46.310;11.214;2022-10-16T00:46:27;16.10;99.90
9987;DHT22;5033;46.310;11.214;2022-10-16T00:48:59;16.10;99.90
9987;DHT22;5033;46.310;11.214;2022-10-16T00:51:37;16.10;99.90
9987;DHT22;5033;46.310;11.214;2022-10-16T00:54:08;16.00;99.90
9987;DHT22;5033;46.310;11.214;2022-10-16T00:56:38;16.00;99.90
9987;DHT22;5033;46.310;11.214;2022-10-16T00:59:10;16.00;99.90
9987;DHT22;5033;46.310;11.214;2022-10-16T01:01:40;16.10;99.90
9987;DHT22;5033;46.310;11.214;2022-10-16T01:04:07;16.10;99.90
9987;DHT22;5033;46.310;11.214;2022-10-16T01:06:39;16.10;99.90
9987;DHT22;5033;46.310;11.214;2022-10-16T01:09:13;16.10;99.90
9987;DHT22;5033;46.310;11.214;2022-10-16T01:11:49;16.10;99.90
9987;DHT22;5033;46.310;11.214;2022-10-16T01:14:25;16.00;99.90
9987;DHT22;5033;46.310;11.214;2022-10-16T01:16:57;16.00;99.90
9987;DHT22;5033;46.310;11.214;2022-10-16T01:19:50;16.00;99.90
9987;DHT22;5033;46.310;11.214;2022-10-16T01:22:20;16.00;99.90
9987;DHT22;5033;46.310;11.214;2022-10-16T01:24:49;15.90;99.90
9987;DHT22;5033;46.310;11.214;2022-10-16T01:27:22;15.90;99.90
9987;DHT22;5033;46.310;11.214;2022-10-16T01:29:54;15.90;99.90
9987;DHT22;5033;46.310;11.214;2022-10-16T01:32:30;15.80;99.90
9987;DHT22;5033;46.310;11.214;2022-10-16T01:35:00;15.80;99.90
9987;DHT22;5033;46.310;11.214;2022-10-16T01:37:33;15.80;99.90
9987;DHT22;5033;46.310;11.214;2022-10-16T01:40:06;15.80;99.90
9987;DHT22;5033;46.310;11.214;2022-10-16T01:42:38;15.80;99.90
9987;DHT22;5033;46.310;11.214;2022-10-16T01:45:08;15.80;99.90
9987;DHT22;5033;46.310;11.214;2022-10-16T01:47:39;15.80;99.90
9987;DHT22;5033;46.310;11.214;2022-10-16T01:50:08;15.80;99.90
9987;DHT22;5033;46.310;11.214;2022-10-16T01:52:37;15.80;99.90
9987;DHT22;5033;46.310;11.214;2022-10-16T01:55:08;15.80;99.90
9987;DHT22;5033;46.310;11.214;2022-10-16T01:57:41;15.80;99.90
9987;DHT22;5033;46.310;11.214;2022-10-16T02:00:12;15.80;99.90
9987;DHT22;5033;46.310;11.214;2022-10-16T02:02:41;15.70;99.90
9987;DHT22;5033;46.310;11.214;2022-10-16T02:05:14;15.80;99.90
9987;DHT22;5033;46.310;11.214;2022-10-16T02:07:42;15.70;99.90
9987;DHT22;5033;46.310;11.214;2022-10-16T02:10:10;15.70;99.90
9987;DHT22;5033;46.310;11.214;2022-10-16T02:12:42;15.80;99.90
9987;DHT22;5033;46.310;11.214;2022-10-16T02:15:11;15.80;99.90
9987;DHT22;5033;46.310;11.214;2022-10-16T02:17:38;15.70;99.90
9987;DHT22;5033;46.310;11.214;2022-10-16T02:20:06;15.70;99.90
9987;DHT22;5033;46.310;11.214;2022-10-16T02:22:35;15.70;99.90
9987;DHT22;5033;46.310;11.214;2022-10-16T02:25:06;15.70;99.90
9987;DHT22;5033;46.310;11.214;2022-10-16T02:27:36;15.70;99.90
9987;DHT22;5033;46.310;11.214;2022-10-16T02:30:09;15.70;99.90
9987;DHT22;5033;46.310;11.214;2022-10-16T02:32:41;15.70;99.90
9987;DHT22;5033;46.310;11.214;2022-10-16T02:35:10;15.70;99.90
9987;DHT22;5033;46.310;11.214;2022-10-16T02:37:38;15.70;99.90
9987;DHT22;5033;46.310;11.214;2022-10-16T02:40:08;15.70;99.90
9987;DHT22;5033;46.310;11.214;2022-10-16T02:42:37;15.70;99.90
9987;DHT22;5033;46.310;11.214;2022-10-16T02:45:07;15.70;99.90
9987;DHT22;5033;46.310;11.214;2022-10-16T02:47:35;15.60;99.90
9987;DHT22;5033;46.310;11.214;2022-10-16T02:50:03;15.60;99.90
9987;DHT22;5033;46.310;11.214;2022-10-16T02:52:30;15.60;99.90
9987;DHT22;5033;46.310;11.214;2022-10-16T02:54:57;15.60;99.90
9987;DHT22;5033;46.310;11.214;2022-10-16T02:57:24;15.60;99.90
9987;DHT22;5033;46.310;11.214;2022-10-16T02:59:51;15.60;99.90
9987;DHT22;5033;46.310;11.214;2022-10-16T03:02:20;15.50;99.90
9987;DHT22;5033;46.310;11.214;2022-10-16T03:04:47;15.50;99.90
9987;DHT22;5033;46.310;11.214;2022-10-16T03:07:14;15.50;99.90
9987;DHT22;5033;46.310;11.214;2022-10-16T03:09:41;15.50;99.90
9987;DHT22;5033;46.310;11.214;2022-10-16T03:12:08;15.50;99.90
9987;DHT22;5033;46.310;11.214;2022-10-16T03:14:37;15.50;99.90
9987;DHT22;5033;46.310;11.214;2022-10-16T03:17:05;15.50;99.90
9987;DHT22;5033;46.310;11.214;2022-10-16T03:19:34;15.50;99.90
9987;DHT22;5033;46.310;11.214;2022-10-16T03:22:01;15.50;99.90
9987;DHT22;5033;46.310;11.214;2022-10-16T03:24:28;15.50;99.90
9987;DHT22;5033;46.310;11.214;2022-10-16T03:26:55;15.50;99.90
9987;DHT22;5033;46.310;11.214;2022-10-16T03:29:23;15.40;99.90
9987;DHT22;5033;46.310;11.214;2022-10-16T03:31:51;15.40;99.90
9987;DHT22;5033;46.310;11.214;2022-10-16T03:34:18;15.40;99.90
9987;DHT22;5033;46.310;11.214;2022-10-16T03:36:47;15.40;99.90
9987;DHT22;5033;46.310;11.214;2022-10-16T03:39:14;15.30;99.90
9987;DHT22;5033;46.310;11.214;2022-10-16T03:41:41;15.30;99.90
9987;DHT22;5033;46.310;11.214;2022-10-16T03:44:08;15.30;99.90
9987;DHT22;5033;46.310;11.214;2022-10-16T03:46:35;15.30;99.90
9987;DHT22;5033;46.310;11.214;2022-10-16T03:49:02;15.30;99.90
9987;DHT22;5033;46.310;11.214;2022-10-16T03:51:29;15.30;99.90
9987;DHT22;5033;46.310;11.214;2022-10-16T03:53:58;15.20;99.90
9987;DHT22;5033;46.310;11.214;2022-10-16T03:56:25;15.20;99.90
9987;DHT22;5033;46.310;11.214;2022-10-16T03:58:52;15.20;99.90
9987;DHT22;5033;46.310;11.214;2022-10-16T04:01:19;15.20;99.90
9987;DHT22;5033;46.310;11.214;2022-10-16T04:03:46;15.20;99.90
9987;DHT22;5033;46.310;11.214;2022-10-16T04:06:13;15.20;99.90
9987;DHT22;5033;46.310;11.214;2022-10-16T04:08:42;15.10;99.90
9987;DHT22;5033;46.310;11.214;2022-10-16T04:11:11;15.20;99.90
9987;DHT22;5033;46.310;11.214;2022-10-16T04:13:38;15.10;99.90
9987;DHT22;5033;46.310;11.214;2022-10-16T04:16:05;15.20;99.90
9987;DHT22;5033;46.310;11.214;2022-10-16T04:18:32;15.20;99.90
9987;DHT22;5033;46.310;11.214;2022-10-16T04:21:03;15.20;99.90
9987;DHT22;5033;46.310;11.214;2022-10-16T04:23:30;15.20;99.90
9987;DHT22;5033;46.310;11.214;2022-10-16T04:25:57;15.20;99.90
9987;DHT22;5033;46.310;11.214;2022-10-16T04:28:26;15.20;99.90
9987;DHT22;5033;46.310;11.214;2022-10-16T04:30:53;15.20;99.90
9987;DHT22;5033;46.310;11.214;2022-10-16T04:33:20;15.20;99.90
9987;DHT22;5033;46.310;11.214;2022-10-16T04:35:47;15.20;99.90
9987;DHT22;5033;46.310;11.214;2022-10-16T04:38:14;15.20;99.90
9987;DHT22;5033;46.310;11.214;2022-10-16T04:40:42;15.20;99.90
9987;DHT22;5033;46.310;11.214;2022-10-16T04:43:09;15.20;99.90
9987;DHT22;5033;46.310;11.214;2022-10-16T04:45:37;15.20;99.90
9987;DHT22;5033;46.310;11.214;2022-10-16T04:48:05;15.20;99.90
9987;DHT22;5033;46.310;11.214;2022-10-16T04:50:32;15.20;99.90
9987;DHT22;5033;46.310;11.214;2022-10-16T04:52:59;15.20;99.90
9987;DHT22;5033;46.310;11.214;2022-10-16T04:55:26;15.30;99.90
9987;DHT22;5033;46.310;11.214;2022-10-16T04:57:53;15.30;99.90
9987;DHT22;5033;46.310;11.214;2022-10-16T05:00:20;15.30;99.90
9987;DHT22;5033;46.310;11.214;2022-10-16T05:02:49;15.30;99.90
9987;DHT22;5033;46.310;11.214;2022-10-16T05:05:17;15.30;99.90
9987;DHT22;5033;46.310;11.214;2022-10-16T05:07:45;15.30;99.90
9987;DHT22;5033;46.310;11.214;2022-10-16T05:10:12;15.30;99.90
9987;DHT22;5033;46.310;11.214;2022-10-16T05:12:39;15.30;99.90
9987;DHT22;5033;46.310;11.214;2022-10-16T05:15:07;15.30;99.90
9987;DHT22;5033;46.310;11.214;2022-10-16T05:17:34;15.30;99.90
9987;DHT22;5033;46.310;11.214;2022-10-16T05:20:03;15.30;99.90
9987;DHT22;5033;46.310;11.214;2022-10-16T05:22:30;15.30;99.90
9987;DHT22;5033;46.310;11.214;2022-10-16T05:24:57;15.30;99.90
9987;DHT22;5033;46.310;11.214;2022-10-16T05:27:24;15.30;99.90
9987;DHT22;5033;46.310;11.214;2022-10-16T05:29:51;15.30;99.90
9987;DHT22;5033;46.310;11.214;2022-10-16T05:32:19;15.30;99.90
9987;DHT22;5033;46.310;11.214;2022-10-16T05:34:46;15.30;99.90
9987;DHT22;5033;46.310;11.214;2022-10-16T05:37:14;15.30;99.90
9987;DHT22;5033;46.310;11.214;2022-10-16T05:39:41;15.30;99.90
9987;DHT22;5033;46.310;11.214;2022-10-16T05:42:08;15.20;99.90
9987;DHT22;5033;46.310;11.214;2022-10-16T05:44:35;15.30;99.90
9987;DHT22;5033;46.310;11.214;2022-10-16T05:47:02;15.30;99.90
9987;DHT22;5033;46.310;11.214;2022-10-16T05:49:30;15.30;99.90
9987;DHT22;5033;46.310;11.214;2022-10-16T05:51:58;15.30;99.90
9987;DHT22;5033;46.310;11.214;2022-10-16T05:54:34;15.30;99.90
9987;DHT22;5033;46.310;11.214;2022-10-16T05:57:01;15.30;99.90
9987;DHT22;5033;46.310;11.214;2022-10-16T05:59:28;15.30;99.90
9987;DHT22;5033;46.310;11.214;2022-10-16T06:01:55;15.30;99.90
9987;DHT22;5033;46.310;11.214;2022-10-16T06:04:22;15.30;99.90
9987;DHT22;5033;46.310;11.214;2022-10-16T06:06:49;15.40;99.90
9987;DHT22;5033;46.310;11.214;2022-10-16T06:09:16;15.40;99.90
9987;DHT22;5033;46.310;11.214;2022-10-16T06:11:45;15.40;99.90
9987;DHT22;5033;46.310;11.214;2022-10-16T06:14:12;15.40;99.90
9987;DHT22;5033;46.310;11.214;2022-10-16T06:16:39;15.40;99.90
9987;DHT22;5033;46.310;11.214;2022-10-16T06:19:06;15.40;99.90
9987;DHT22;5033;46.310;11.214;2022-10-16T06:21:35;15.40;99.90
9987;DHT22;5033;46.310;11.214;2022-10-16T06:24:02;15.50;99.90
9987;DHT22;5033;46.310;11.214;2022-10-16T06:26:30;15.50;99.90
9987;DHT22;5033;46.310;11.214;2022-10-16T06:28:59;15.50;99.90
9987;DHT22;5033;46.310;11.214;2022-10-16T06:31:27;15.40;99.90
9987;DHT22;5033;46.310;11.214;2022-10-16T06:33:57;15.40;99.90
9987;DHT22;5033;46.310;11.214;2022-10-16T06:36:25;15.50;99.90
9987;DHT22;5033;46.310;11.214;2022-10-16T06:38:52;15.50;99.90
9987;DHT22;5033;46.310;11.214;2022-10-16T06:41:21;15.50;99.90
9987;DHT22;5033;46.310;11.214;2022-10-16T06:43:49;15.50;99.90
9987;DHT22;5033;46.310;11.214;2022-10-16T06:46:19;15.60;99.90
9987;DHT22;5033;46.310;11.214;2022-10-16T06:48:47;15.60;99.90
9987;DHT22;5033;46.310;11.214;2022-10-16T06:51:15;15.70;99.90
9987;DHT22;5033;46.310;11.214;2022-10-16T06:53:45;15.70;99.90
9987;DHT22;5033;46.310;11.214;2022-10-16T06:56:15;15.70;99.90
9987;DHT22;5033;46.310;11.214;2022-10-16T06:58:43;15.80;99.90
9987;DHT22;5033;46.310;11.214;2022-10-16T07:01:11;15.80;99.90
9987;DHT22;5033;46.310;11.214;2022-10-16T07:03:41;15.90;99.90
9987;DHT22;5033;46.310;11.214;2022-10-16T07:06:10;16.00;99.90
9987;DHT22;5033;46.310;11.214;2022-10-16T07:08:39;16.00;99.90
9987;DHT22;5033;46.310;11.214;2022-10-16T07:11:08;16.10;99.90
9987;DHT22;5033;46.310;11.214;2022-10-16T07:13:36;16.20;99.90
9987;DHT22;5033;46.310;11.214;2022-10-16T07:16:07;16.40;99.90
9987;DHT22;5033;46.310;11.214;2022-10-16T07:18:35;16.50;99.90
9987;DHT22;5033;46.310;11.214;2022-10-16T07:21:06;16.70;99.90
9987;DHT22;5033;46.310;11.214;2022-10-16T07:23:34;16.80;99.90
9987;DHT22;5033;46.310;11.214;2022-10-16T07:26:01;16.80;99.90
9987;DHT22;5033;46.310;11.214;2022-10-16T07:28:28;16.90;99.90
9987;DHT22;5033;46.310;11.214;2022-10-16T07:31:00;17.10;99.90
9987;DHT22;5033;46.310;11.214;2022-10-16T07:33:28;17.10;99.90
9987;DHT22;5033;46.310;11.214;2022-10-16T07:35:55;17.20;99.90
9987;DHT22;5033;46.310;11.214;2022-10-16T07:38:23;17.30;99.90
9987;DHT22;5033;46.310;11.214;2022-10-16T07:40:56;17.30;99.90
9987;DHT22;5033;46.310;11.214;2022-10-16T07:43:24;17.40;99.90
9987;DHT22;5033;46.310;11.214;2022-10-16T07:45:51;17.40;99.90
9987;DHT22;5033;46.310;11.214;2022-10-16T07:48:19;17.40;99.90
9987;DHT22;5033;46.310;11.214;2022-10-16T07:50:46;17.50;99.90
9987;DHT22;5033;46.310;11.214;2022-10-16T07:53:13;17.50;99.90
9987;DHT22;5033;46.310;11.214;2022-10-16T07:55:42;17.50;99.90
9987;DHT22;5033;46.310;11.214;2022-10-16T07:58:09;17.50;99.90
9987;DHT22;5033;46.310;11.214;2022-10-16T08:00:37;17.50;99.90
9987;DHT22;5033;46.310;11.214;2022-10-16T08:03:04;17.50;99.90
9987;DHT22;5033;46.310;11.214;2022-10-16T08:05:32;17.60;99.90
9987;DHT22;5033;46.310;11.214;2022-10-16T08:07:59;17.70;99.90
9987;DHT22;5033;46.310;11.214;2022-10-16T08:10:27;17.80;99.90
9987;DHT22;5033;46.310;11.214;2022-10-16T08:12:56;17.90;99.90
9987;DHT22;5033;46.310;11.214;2022-10-16T08:15:24;18.00;99.90
9987;DHT22;5033;46.310;11.214;2022-10-16T08:17:58;18.10;99.90
9987;DHT22;5033;46.310;11.214;2022-10-16T08:20:26;18.20;99.90
9987;DHT22;5033;46.310;11.214;2022-10-16T08:22:53;18.30;99.90
9987;DHT22;5033;46.310;11.214;2022-10-16T08:25:21;18.40;99.90
9987;DHT22;5033;46.310;11.214;2022-10-16T08:27:49;18.30;99.90
9987;DHT22;5033;46.310;11.214;2022-10-16T08:30:18;18.40;99.90
9987;DHT22;5033;46.310;11.214;2022-10-16T08:32:46;18.50;99.90
9987;DHT22;5033;46.310;11.214;2022-10-16T08:35:14;18.70;99.90
9987;DHT22;5033;46.310;11.214;2022-10-16T08:37:41;18.80;99.90
9987;DHT22;5033;46.310;11.214;2022-10-16T08:40:17;18.90;99.90
9987;DHT22;5033;46.310;11.214;2022-10-16T08:43:00;19.00;99.90
9987;DHT22;5033;46.310;11.214;2022-10-16T08:45:43;19.10;99.90
9987;DHT22;5033;46.310;11.214;2022-10-16T08:48:20;19.20;99.90
9987;DHT22;5033;46.310;11.214;2022-10-16T08:50:50;19.30;99.90
9987;DHT22;5033;46.310;11.214;2022-10-16T08:53:20;19.50;99.90
9987;DHT22;5033;46.310;11.214;2022-10-16T08:55:50;19.70;99.90
9987;DHT22;5033;46.310;11.214;2022-10-16T08:58:19;19.80;99.90
9987;DHT22;5033;46.310;11.214;2022-10-16T09:00:49;19.90;99.90
9987;DHT22;5033;46.310;11.214;2022-10-16T09:03:33;20.40;99.90
9987;DHT22;5033;46.310;11.214;2022-10-16T09:06:23;20.70;99.90
9987;DHT22;5033;46.310;11.214;2022-10-16T09:09:11;21.00;99.90
9987;DHT22;5033;46.310;11.214;2022-10-16T09:11:48;21.20;99.90
9987;DHT22;5033;46.310;11.214;2022-10-16T09:14:36;21.30;99.90
9987;DHT22;5033;46.310;11.214;2022-10-16T09:17:19;21.40;99.90
9987;DHT22;5033;46.310;11.214;2022-10-16T09:19:53;21.30;99.90
9987;DHT22;5033;46.310;11.214;2022-10-16T09:22:23;21.50;99.90
9987;DHT22;5033;46.310;11.214;2022-10-16T09:24:51;21.70;99.90
9987;DHT22;5033;46.310;11.214;2022-10-16T09:27:19;21.80;99.90
9987;DHT22;5033;46.310;11.214;2022-10-16T09:29:46;21.90;99.90
9987;DHT22;5033;46.310;11.214;2022-10-16T09:32:17;22.00;99.90
9987;DHT22;5033;46.310;11.214;2022-10-16T09:34:47;22.10;99.90
9987;DHT22;5033;46.310;11.214;2022-10-16T09:37:18;22.00;99.90
9987;DHT22;5033;46.310;11.214;2022-10-16T09:39:48;21.90;99.90
9987;DHT22;5033;46.310;11.214;2022-10-16T09:42:17;21.80;99.90
9987;DHT22;5033;46.310;11.214;2022-10-16T09:44:47;21.80;99.90
9987;DHT22;5033;46.310;11.214;2022-10-16T09:47:19;21.70;99.90
9987;DHT22;5033;46.310;11.214;2022-10-16T09:49:54;21.80;99.90
9987;DHT22;5033;46.310;11.214;2022-10-16T09:52:23;21.90;99.90
9987;DHT22;5033;46.310;11.214;2022-10-16T09:54:52;21.90;99.90
9987;DHT22;5033;46.310;11.214;2022-10-16T09:57:19;22.00;99.90
9987;DHT22;5033;46.310;11.214;2022-10-16T09:59:49;22.00;99.90
9987;DHT22;5033;46.310;11.214;2022-10-16T10:02:20;21.90;99.90
9987;DHT22;5033;46.310;11.214;2022-10-16T10:04:51;21.70;99.90
9987;DHT22;5033;46.310;11.214;2022-10-16T10:07:24;21.60;99.90
9987;DHT22;5033;46.310;11.214;2022-10-16T10:09:52;21.60;99.90
9987;DHT22;5033;46.310;11.214;2022-10-16T10:12:21;21.70;99.90
9987;DHT22;5033;46.310;11.214;2022-10-16T10:14:51;21.90;99.90
9987;DHT22;5033;46.310;11.214;2022-10-16T10:17:21;21.90;99.90
9987;DHT22;5033;46.310;11.214;2022-10-16T10:19:51;22.30;99.90
9987;DHT22;5033;46.310;11.214;2022-10-16T10:22:23;23.00;99.90
9987;DHT22;5033;46.310;11.214;2022-10-16T10:25:01;23.70;99.90
9987;DHT22;5033;46.310;11.214;2022-10-16T10:27:39;24.10;99.90
9987;DHT22;5033;46.310;11.214;2022-10-16T10:30:17;24.70;99.90
9987;DHT22;5033;46.310;11.214;2022-10-16T10:32:51;24.80;99.90
9987;DHT22;5033;46.310;11.214;2022-10-16T10:35:27;25.00;99.90
9987;DHT22;5033;46.310;11.214;2022-10-16T10:38:06;25.00;99.90
9987;DHT22;5033;46.310;11.214;2022-10-16T10:40:45;25.00;99.90
9987;DHT22;5033;46.310;11.214;2022-10-16T10:43:24;24.70;99.90
9987;DHT22;5033;46.310;11.214;2022-10-16T10:45:57;24.50;99.90
9987;DHT22;5033;46.310;11.214;2022-10-16T10:48:43;24.20;99.90
9987;DHT22;5033;46.310;11.214;2022-10-16T10:51:19;24.30;99.90
9987;DHT22;5033;46.310;11.214;2022-10-16T10:53:52;24.50;99.90
9987;DHT22;5033;46.310;11.214;2022-10-16T10:56:40;24.50;99.90
9987;DHT22;5033;46.310;11.214;2022-10-16T11:02:01;24.50;99.90
9987;DHT22;5033;46.310;11.214;2022-10-16T11:07:37;24.70;99.90
9987;DHT22;5033;46.310;11.214;2022-10-16T11:10:13;24.60;99.90
9987;DHT22;5033;46.310;11.214;2022-10-16T11:12:44;24.80;99.90
9987;DHT22;5033;46.310;11.214;2022-10-16T11:15:15;25.10;99.90
9987;DHT22;5033;46.310;11.214;2022-10-16T11:17:47;25.00;99.90
9987;DHT22;5033;46.310;11.214;2022-10-16T11:20:19;24.90;99.90
9987;DHT22;5033;46.310;11.214;2022-10-16T11:22:53;25.00;99.90
9987;DHT22;5033;46.310;11.214;2022-10-16T11:25:25;25.00;99.90
9987;DHT22;5033;46.310;11.214;2022-10-16T11:27:56;24.90;99.90
9987;DHT22;5033;46.310;11.214;2022-10-16T11:30:26;25.10;99.90
9987;DHT22;5033;46.310;11.214;2022-10-16T11:33:04;25.00;99.90
9987;DHT22;5033;46.310;11.214;2022-10-16T11:35:41;25.20;99.90
9987;DHT22;5033;46.310;11.214;2022-10-16T11:38:15;25.10;99.90
9987;DHT22;5033;46.310;11.214;2022-10-16T11:40:49;25.00;99.90
9987;DHT22;5033;46.310;11.214;2022-10-16T11:43:22;24.60;99.90
9987;DHT22;5033;46.310;11.214;2022-10-16T11:45:53;24.70;99.90
9987;DHT22;5033;46.310;11.214;2022-10-16T11:48:27;25.10;99.90
9987;DHT22;5033;46.310;11.214;2022-10-16T11:51:02;25.30;99.90
9987;DHT22;5033;46.310;11.214;2022-10-16T11:53:42;25.40;99.90
9987;DHT22;5033;46.310;11.214;2022-10-16T11:56:13;25.50;99.90
9987;DHT22;5033;46.310;11.214;2022-10-16T11:58:50;25.50;99.90
9987;DHT22;5033;46.310;11.214;2022-10-16T12:01:22;25.30;99.90
9987;DHT22;5033;46.310;11.214;2022-10-16T12:04:03;25.20;99.90
9987;DHT22;5033;46.310;11.214;2022-10-16T12:06:35;25.10;99.90
9987;DHT22;5033;46.310;11.214;2022-10-16T12:09:05;25.10;99.90
9987;DHT22;5033;46.310;11.214;2022-10-16T12:11:39;25.40;99.90
9987;DHT22;5033;46.310;11.214;2022-10-16T12:14:18;25.70;99.90
9987;DHT22;5033;46.310;11.214;2022-10-16T12:16:53;26.00;99.90
9987;DHT22;5033;46.310;11.214;2022-10-16T12:19:22;26.00;99.90
9987;DHT22;5033;46.310;11.214;2022-10-16T12:21:51;25.70;99.90
9987;DHT22;5033;46.310;11.214;2022-10-16T12:24:31;25.50;99.90
9987;DHT22;5033;46.310;11.214;2022-10-16T12:26:58;25.40;99.90
9987;DHT22;5033;46.310;11.214;2022-10-16T12:29:34;25.40;99.90
9987;DHT22;5033;46.310;11.214;2022-10-16T12:32:04;25.20;99.90
9987;DHT22;5033;46.310;11.214;2022-10-16T12:34:38;25.40;99.90
9987;DHT22;5033;46.310;11.214;2022-10-16T12:37:13;25.40;99.90
9987;DHT22;5033;46.310;11.214;2022-10-16T12:39:42;25.30;99.90
9987;DHT22;5033;46.310;11.214;2022-10-16T12:42:31;25.20;99.90
9987;DHT22;5033;46.310;11.214;2022-10-16T12:44:59;25.20;99.90
9987;DHT22;5033;46.310;11.214;2022-10-16T12:47:37;25.00;99.90
9987;DHT22;5033;46.310;11.214;2022-10-16T12:50:23;24.90;99.90
9987;DHT22;5033;46.310;11.214;2022-10-16T12:52:52;25.10;99.90
9987;DHT22;5033;46.310;11.214;2022-10-16T12:55:22;25.40;99.90
9987;DHT22;5033;46.310;11.214;2022-10-16T12:58:08;25.50;99.90
9987;DHT22;5033;46.310;11.214;2022-10-16T13:00:44;25.00;99.90
9987;DHT22;5033;46.310;11.214;2022-10-16T13:03:50;24.50;99.90
9987;DHT22;5033;46.310;11.214;2022-10-16T13:06:29;24.20;99.90
9987;DHT22;5033;46.310;11.214;2022-10-16T13:09:20;24.20;99.90
9987;DHT22;5033;46.310;11.214;2022-10-16T13:12:08;24.00;99.90
9987;DHT22;5033;46.310;11.214;2022-10-16T13:15:16;23.80;99.90
9987;DHT22;5033;46.310;11.214;2022-10-16T13:17:53;23.90;99.90
9987;DHT22;5033;46.310;11.214;2022-10-16T13:20:27;23.80;99.90
9987;DHT22;5033;46.310;11.214;2022-10-16T13:23:03;23.70;99.90
9987;DHT22;5033;46.310;11.214;2022-10-16T13:25:41;23.80;99.90
9987;DHT22;5033;46.310;11.214;2022-10-16T13:28:13;23.80;99.90
9987;DHT22;5033;46.310;11.214;2022-10-16T13:30:42;23.90;99.90
9987;DHT22;5033;46.310;11.214;2022-10-16T13:33:15;24.00;99.90
9987;DHT22;5033;46.310;11.214;2022-10-16T13:35:48;24.00;99.90
9987;DHT22;5033;46.310;11.214;2022-10-16T13:38:18;23.80;99.90
9987;DHT22;5033;46.310;11.214;2022-10-16T13:40:51;23.70;99.90
9987;DHT22;5033;46.310;11.214;2022-10-16T13:43:22;23.80;99.90
9987;DHT22;5033;46.310;11.214;2022-10-16T13:45:55;23.60;99.90
9987;DHT22;5033;46.310;11.214;2022-10-16T13:48:22;23.60;99.90
9987;DHT22;5033;46.310;11.214;2022-10-16T13:50:59;23.70;99.90
9987;DHT22;5033;46.310;11.214;2022-10-16T13:53:26;23.80;99.90
9987;DHT22;5033;46.310;11.214;2022-10-16T13:55:53;23.90;99.90
9987;DHT22;5033;46.310;11.214;2022-10-16T13:58:22;24.00;99.90
9987;DHT22;5033;46.310;11.214;2022-10-16T14:00:56;24.00;99.90
9987;DHT22;5033;46.310;11.214;2022-10-16T14:03:25;24.00;99.90
9987;DHT22;5033;46.310;11.214;2022-10-16T14:05:54;24.10;99.90
9987;DHT22;5033;46.310;11.214;2022-10-16T14:08:23;24.30;99.90
9987;DHT22;5033;46.310;11.214;2022-10-16T14:10:53;24.40;99.90
9987;DHT22;5033;46.310;11.214;2022-10-16T14:13:29;24.40;99.90
9987;DHT22;5033;46.310;11.214;2022-10-16T14:15:56;24.20;99.90
9987;DHT22;5033;46.310;11.214;2022-10-16T14:18:27;24.00;99.90
9987;DHT22;5033;46.310;11.214;2022-10-16T14:20:55;23.80;99.90
9987;DHT22;5033;46.310;11.214;2022-10-16T14:23:30;23.60;99.90
9987;DHT22;5033;46.310;11.214;2022-10-16T14:26:11;23.50;99.90
9987;DHT22;5033;46.310;11.214;2022-10-16T14:28:41;23.40;99.90
9987;DHT22;5033;46.310;11.214;2022-10-16T14:31:27;23.30;99.90
9987;DHT22;5033;46.310;11.214;2022-10-16T14:33:55;23.20;99.90
9987;DHT22;5033;46.310;11.214;2022-10-16T14:36:22;23.20;99.90
9987;DHT22;5033;46.310;11.214;2022-10-16T14:38:57;23.10;99.90
9987;DHT22;5033;46.310;11.214;2022-10-16T14:41:26;22.90;99.90
9987;DHT22;5033;46.310;11.214;2022-10-16T14:43:56;22.70;99.90
9987;DHT22;5033;46.310;11.214;2022-10-16T14:46:30;22.70;99.90
9987;DHT22;5033;46.310;11.214;2022-10-16T14:49:02;22.50;99.90
9987;DHT22;5033;46.310;11.214;2022-10-16T14:51:30;22.40;99.90
9987;DHT22;5033;46.310;11.214;2022-10-16T14:53:57;22.30;99.90
9987;DHT22;5033;46.310;11.214;2022-10-16T14:56:27;22.20;99.90
9987;DHT22;5033;46.310;11.214;2022-10-16T14:58:57;22.10;99.90
9987;DHT22;5033;46.310;11.214;2022-10-16T15:01:24;22.00;99.90
9987;DHT22;5033;46.310;11.214;2022-10-16T15:03:51;21.90;99.90
9987;DHT22;5033;46.310;11.214;2022-10-16T15:06:20;21.90;99.90
9987;DHT22;5033;46.310;11.214;2022-10-16T15:08:47;21.80;99.90
9987;DHT22;5033;46.310;11.214;2022-10-16T15:11:17;21.70;99.90
9987;DHT22;5033;46.310;11.214;2022-10-16T15:13:45;21.60;99.90
9987;DHT22;5033;46.310;11.214;2022-10-16T15:16:15;21.60;99.90
9987;DHT22;5033;46.310;11.214;2022-10-16T15:18:43;21.50;99.90
9987;DHT22;5033;46.310;11.214;2022-10-16T15:21:21;21.40;99.90
9987;DHT22;5033;46.310;11.214;2022-10-16T15:23:49;21.40;99.90
9987;DHT22;5033;46.310;11.214;2022-10-16T15:26:17;21.30;99.90
9987;DHT22;5033;46.310;11.214;2022-10-16T15:28:44;21.20;99.90
9987;DHT22;5033;46.310;11.214;2022-10-16T15:31:12;21.10;99.90
9987;DHT22;5033;46.310;11.214;2022-10-16T15:33:39;21.10;99.90
9987;DHT22;5033;46.310;11.214;2022-10-16T15:36:07;21.00;99.90
9987;DHT22;5033;46.310;11.214;2022-10-16T15:38:34;21.00;99.90
9987;DHT22;5033;46.310;11.214;2022-10-16T15:41:02;21.00;99.90
9987;DHT22;5033;46.310;11.214;2022-10-16T15:43:29;20.90;99.90
9987;DHT22;5033;46.310;11.214;2022-10-16T15:46:01;20.90;99.90
9987;DHT22;5033;46.310;11.214;2022-10-16T15:48:30;20.90;99.90
9987;DHT22;5033;46.310;11.214;2022-10-16T15:50:57;20.90;99.90
9987;DHT22;5033;46.310;11.214;2022-10-16T15:53:24;20.90;99.90
9987;DHT22;5033;46.310;11.214;2022-10-16T15:55:51;20.90;99.90
9987;DHT22;5033;46.310;11.214;2022-10-16T15:58:18;20.90;99.90
9987;DHT22;5033;46.310;11.214;2022-10-16T16:00:53;20.80;99.90
9987;DHT22;5033;46.310;11.214;2022-10-16T16:03:20;20.80;99.90
9987;DHT22;5033;46.310;11.214;2022-10-16T16:05:48;20.80;99.90
9987;DHT22;5033;46.310;11.214;2022-10-16T16:08:16;20.70;99.90
9987;DHT22;5033;46.310;11.214;2022-10-16T16:10:43;20.70;99.90
9987;DHT22;5033;46.310;11.214;2022-10-16T16:13:10;20.60;99.90